sensor_id;sensor_type;location;lat;lon;timestamp;pressure;altitude;pressure_sealevel;temperature;humidity
2875;BME280;1445;52.600;13.328;2023-04-20T00:01:05;101543.28;;;6.72;100.00
2875;BME280;1445;52.600;13.328;2023-04-20T00:03:31;101540.28;;;6.74;100.00
2875;BME280;1445;52.600;13.328;2023-04-20T00:05:57;101531.53;;;6.77;100.00
2875;BME280;1445;52.600;13.328;2023-04-20T00:08:28;101542.13;;;6.68;100.00
2875;BME280;1445;52.600;13.328;2023-04-20T00:10:54;101540.28;;;6.74;100.00
2875;BME280;1445;52.600;13.328;2023-04-20T00:13:19;101538.63;;;6.73;100.00
2875;BME280;1445;52.600;13.328;2023-04-20T00:15:45;101531.00;;;6.75;100.00
2875;BME280;1445;52.600;13.328;2023-04-20T00:18:10;101519.19;;;6.74;100.00
2875;BME280;1445;52.600;13.328;2023-04-20T00:20:36;101514.47;;;6.69;100.00
2875;BME280;1445;52.600;13.328;2023-04-20T00:23:02;101516.78;;;6.78;100.00
2875;BME280;1445;52.600;13.328;2023-04-20T00:25:27;101513.66;;;6.69;100.00
2875;BME280;1445;52.600;13.328;2023-04-20T00:27:54;101535.38;;;6.76;100.00
2875;BME280;1445;52.600;13.328;2023-04-20T00:30:20;101541.44;;;6.78;100.00
2875;BME280;1445;52.600;13.328;2023-04-20T00:32:46;101535.19;;;6.82;100.00
2875;BME280;1445;52.600;13.328;2023-04-20T00:35:11;101535.50;;;6.86;100.00
2875;BME280;1445;52.600;13.328;2023-04-20T00:37:36;101529.13;;;6.80;100.00
2875;BME280;1445;52.600;13.328;2023-04-20T00:40:02;101533.31;;;6.88;100.00
2875;BME280;1445;52.600;13.328;2023-04-20T00:42:28;101526.25;;;6.92;100.00
2875;BME280;1445;52.600;13.328;2023-04-20T00:44:53;101526.78;;;6.94;100.00
2875;BME280;1445;52.600;13.328;2023-04-20T00:47:19;101525.66;;;6.90;100.00
2875;BME280;1445;52.600;13.328;2023-04-20T00:49:44;101530.63;;;6.93;100.00
2875;BME280;1445;52.600;13.328;2023-04-20T00:52:10;101524.06;;;6.94;100.00
2875;BME280;1445;52.600;13.328;2023-04-20T00:54:35;101519.50;;;7.05;100.00
2875;BME280;1445;52.600;13.328;2023-04-20T00:57:03;101510.41;;;6.99;100.00
2875;BME280;1445;52.600;13.328;2023-04-20T00:59:28;101520.88;;;7.02;100.00
2875;BME280;1445;52.600;13.328;2023-04-20T01:01:54;101511.28;;;7.05;100.00
2875;BME280;1445;52.600;13.328;2023-04-20T01:04:20;101516.56;;;7.11;100.00
2875;BME280;1445;52.600;13.328;2023-04-20T01:06:46;101513.72;;;7.01;100.00
2875;BME280;1445;52.600;13.328;2023-04-20T01:09:11;101523.13;;;7.10;100.00
2875;BME280;1445;52.600;13.328;2023-04-20T01:11:37;101520.94;;;7.12;100.00
2875;BME280;1445;52.600;13.328;2023-04-20T01:14:03;101514.13;;;7.15;100.00
2875;BME280;1445;52.600;13.328;2023-04-20T01:16:29;101511.06;;;7.11;100.00
2875;BME280;1445;52.600;13.328;2023-04-20T01:18:54;101513.81;;;7.11;100.00
2875;BME280;1445;52.600;13.328;2023-04-20T01:21:21;101510.56;;;7.14;100.00
2875;BME280;1445;52.600;13.328;2023-04-20T01:23:46;101503.44;;;7.13;100.00
2875;BME280;1445;52.600;13.328;2023-04-20T01:26:14;101508.91;;;7.13;100.00
2875;BME280;1445;52.600;13.328;2023-04-20T01:28:41;101511.97;;;7.17;100.00
2875;BME280;1445;52.600;13.328;2023-04-20T01:31:07;101509.00;;;7.24;100.00
2875;BME280;1445;52.600;13.328;2023-04-20T01:33:33;101511.38;;;7.15;100.00
2875;BME280;1445;52.600;13.328;2023-04-20T01:35:59;101508.19;;;7.23;100.00
2875;BME280;1445;52.600;13.328;2023-04-20T01:38:25;101508.94;;;7.18;100.00
2875;BME280;1445;52.600;13.328;2023-04-20T01:40:51;101506.47;;;7.17;100.00
2875;BME280;1445;52.600;13.328;2023-04-20T01:43:17;101508.94;;;7.18;100.00
2875;BME280;1445;52.600;13.328;2023-04-20T01:45:43;101503.75;;;7.17;100.00
2875;BME280;1445;52.600;13.328;2023-04-20T01:48:08;101502.34;;;7.14;100.00
2875;BME280;1445;52.600;13.328;2023-04-20T01:50:33;101502.09;;;7.16;100.00
2875;BME280;1445;52.600;13.328;2023-04-20T01:52:59;101500.19;;;7.22;100.00
2875;BME280;1445;52.600;13.328;2023-04-20T01:55:25;101494.72;;;7.22;100.00
2875;BME280;1445;52.600;13.328;2023-04-20T01:57:50;101498.03;;;7.24;100.00
2875;BME280;1445;52.600;13.328;2023-04-20T02:00:16;101495.09;;;7.03;100.00
2875;BME280;1445;52.600;13.328;2023-04-20T02:02:41;101499.34;;;7.16;100.00
2875;BME280;1445;52.600;13.328;2023-04-20T02:05:07;101502.09;;;7.16;100.00
2875;BME280;1445;52.600;13.328;2023-04-20T02:07:33;101505.06;;;7.14;100.00
2875;BME280;1445;52.600;13.328;2023-04-20T02:09:58;101499.38;;;7.21;100.00
2875;BME280;1445;52.600;13.328;2023-04-20T02:12:23;101495.53;;;7.22;100.00
2875;BME280;1445;52.600;13.328;2023-04-20T02:14:49;101498.81;;;7.19;100.00
2875;BME280;1445;52.600;13.328;2023-04-20T02:17:14;101501.84;;;7.23;100.00
2875;BME280;1445;52.600;13.328;2023-04-20T02:19:40;101492.78;;;7.17;100.00
2875;BME280;1445;52.600;13.328;2023-04-20T02:22:05;101491.63;;;7.13;100.00
2875;BME280;1445;52.600;13.328;2023-04-20T02:24:31;101497.13;;;7.13;100.00
2875;BME280;1445;52.600;13.328;2023-04-20T02:26:57;101499.28;;;7.11;100.00
2875;BME280;1445;52.600;13.328;2023-04-20T02:29:23;101503.16;;;7.15;100.00
2875;BME280;1445;52.600;13.328;2023-04-20T02:31:48;101512.22;;;7.15;100.00
2875;BME280;1445;52.600;13.328;2023-04-20T02:34:13;101508.72;;;7.20;100.00
2875;BME280;1445;52.600;13.328;2023-04-20T02:36:39;101502.91;;;7.16;100.00
2875;BME280;1445;52.600;13.328;2023-04-20T02:39:05;101512.72;;;7.12;100.00
2875;BME280;1445;52.600;13.328;2023-04-20T02:41:30;101508.59;;;7.10;100.00
2875;BME280;1445;52.600;13.328;2023-04-20T02:43:58;101505.38;;;7.18;100.00
2875;BME280;1445;52.600;13.328;2023-04-20T02:46:23;101513.38;;;7.20;100.00
2875;BME280;1445;52.600;13.328;2023-04-20T02:48:49;101506.72;;;7.15;100.00
2875;BME280;1445;52.600;13.328;2023-04-20T02:51:14;101505.69;;;7.22;100.00
2875;BME280;1445;52.600;13.328;2023-04-20T02:53:40;101500.69;;;7.13;100.00
2875;BME280;1445;52.600;13.328;2023-04-20T02:56:05;101506.72;;;7.15;100.00
2875;BME280;1445;52.600;13.328;2023-04-20T02:58:31;101507.25;;;7.12;100.00
2875;BME280;1445;52.600;13.328;2023-04-20T03:00:59;101514.69;;;7.17;100.00
2875;BME280;1445;52.600;13.328;2023-04-20T03:03:26;101516.34;;;7.18;100.00
2875;BME280;1445;52.600;13.328;2023-04-20T03:05:52;101509.53;;;7.21;100.00
2875;BME280;1445;52.600;13.328;2023-04-20T03:08:17;101509.00;;;7.24;100.00
2875;BME280;1445;52.600;13.328;2023-04-20T03:10:43;101513.38;;;7.20;100.00
2875;BME280;1445;52.600;13.328;2023-04-20T03:13:08;101515.56;;;7.23;100.00
2875;BME280;1445;52.600;13.328;2023-04-20T03:15:34;101513.91;;;7.22;100.00
2875;BME280;1445;52.600;13.328;2023-04-20T03:17:59;101523.28;;;7.26;100.00
2875;BME280;1445;52.600;13.328;2023-04-20T03:20:24;101506.41;;;7.12;100.00
2875;BME280;1445;52.600;13.328;2023-04-20T03:22:50;101511.16;;;7.22;100.00
2875;BME280;1445;52.600;13.328;2023-04-20T03:25:15;101509.47;;;7.15;100.00
2875;BME280;1445;52.600;13.328;2023-04-20T03:27:41;101505.34;;;7.13;100.00
2875;BME280;1445;52.600;13.328;2023-04-20T03:30:07;101512.72;;;7.12;100.00
2875;BME280;1445;52.600;13.328;2023-04-20T03:32:33;101508.81;;;7.03;100.00
2875;BME280;1445;52.600;13.328;2023-04-20T03:34:58;101506.41;;;7.12;100.00
2875;BME280;1445;52.600;13.328;2023-04-20T03:37:23;101509.44;;;7.10;100.00
2875;BME280;1445;52.600;13.328;2023-04-20T03:39:49;101517.91;;;7.09;100.00
2875;BME280;1445;52.600;13.328;2023-04-20T03:42:14;101519.19;;;7.01;100.00
2875;BME280;1445;52.600;13.328;2023-04-20T03:44:40;101530.28;;;7.11;100.00
2875;BME280;1445;52.600;13.328;2023-04-20T03:47:05;101524.84;;;7.16;100.00
2875;BME280;1445;52.600;13.328;2023-04-20T03:49:30;101524.78;;;7.11;100.00
2875;BME280;1445;52.600;13.328;2023-04-20T03:51:56;101519.81;;;7.08;100.00
2875;BME280;1445;52.600;13.328;2023-04-20T03:54:21;101519.06;;;7.13;100.00
2875;BME280;1445;52.600;13.328;2023-04-20T03:56:46;101512.16;;;7.10;100.00
2875;BME280;1445;52.600;13.328;2023-04-20T03:59:14;101515.13;;;7.04;100.00
2875;BME280;1445;52.600;13.328;2023-04-20T04:01:39;101520.28;;;7.00;100.00
2875;BME280;1445;52.600;13.328;2023-04-20T04:04:04;101522.75;;;7.02;100.00
2875;BME280;1445;52.600;13.328;2023-04-20T04:06:30;101519.16;;;6.96;100.00
2875;BME280;1445;52.600;13.328;2023-04-20T04:08:56;101526.91;;;7.04;100.00
2875;BME280;1445;52.600;13.328;2023-04-20T04:11:21;101530.22;;;7.06;100.00
2875;BME280;1445;52.600;13.328;2023-04-20T04:13:48;101524.44;;;7.03;100.00
2875;BME280;1445;52.600;13.328;2023-04-20T04:16:13;101525.25;;;7.03;100.00
2875;BME280;1445;52.600;13.328;2023-04-20T04:18:42;101528.25;;;7.02;100.00
2875;BME280;1445;52.600;13.328;2023-04-20T04:21:08;101535.13;;;7.04;100.00
2875;BME280;1445;52.600;13.328;2023-04-20T04:23:34;101530.63;;;6.93;100.00
2875;BME280;1445;52.600;13.328;2023-04-20T04:26:01;101537.31;;;7.02;100.00
2875;BME280;1445;52.600;13.328;2023-04-20T04:28:27;101537.34;;;7.07;100.00
2875;BME280;1445;52.600;13.328;2023-04-20T04:30:52;101540.69;;;7.09;100.00
2875;BME280;1445;52.600;13.328;2023-04-20T04:33:18;101541.81;;;7.13;100.00
2875;BME280;1445;52.600;13.328;2023-04-20T04:35:44;101536.34;;;7.13;100.00
2875;BME280;1445;52.600;13.328;2023-04-20T04:38:13;101543.97;;;7.11;100.00
2875;BME280;1445;52.600;13.328;2023-04-20T04:40:38;101541.09;;;7.23;100.00
2875;BME280;1445;52.600;13.328;2023-04-20T04:43:08;101541.31;;;7.16;100.00
2875;BME280;1445;52.600;13.328;2023-04-20T04:45:38;101542.53;;;7.31;100.00
2875;BME280;1445;52.600;13.328;2023-04-20T04:48:06;101546.66;;;7.33;100.00
2875;BME280;1445;52.600;13.328;2023-04-20T04:50:33;101545.81;;;7.33;100.00
2875;BME280;1445;52.600;13.328;2023-04-20T04:52:59;101547.59;;;7.44;100.00
2875;BME280;1445;52.600;13.328;2023-04-20T04:55:24;101555.84;;;7.49;100.00
2875;BME280;1445;52.600;13.328;2023-04-20T04:57:50;101556.75;;;7.55;100.00
2875;BME280;1445;52.600;13.328;2023-04-20T05:00:15;101560.81;;;7.52;100.00
2875;BME280;1445;52.600;13.328;2023-04-20T05:02:41;101548.53;;;7.60;100.00
2875;BME280;1445;52.600;13.328;2023-04-20T05:05:06;101556.47;;;7.56;100.00
2875;BME280;1445;52.600;13.328;2023-04-20T05:07:33;101547.19;;;7.62;100.00
2875;BME280;1445;52.600;13.328;2023-04-20T05:09:58;101554.13;;;7.70;100.00
2875;BME280;1445;52.600;13.328;2023-04-20T05:12:24;101550.56;;;7.75;100.00
2875;BME280;1445;52.600;13.328;2023-04-20T05:14:50;101540.69;;;7.74;100.00
2875;BME280;1445;52.600;13.328;2023-04-20T05:17:16;101536.84;;;7.75;100.00
2875;BME280;1445;52.600;13.328;2023-04-20T05:19:41;101537.81;;;7.91;100.00
2875;BME280;1445;52.600;13.328;2023-04-20T05:22:07;101533.97;;;7.97;100.00
2875;BME280;1445;52.600;13.328;2023-04-20T05:24:32;101533.16;;;7.96;100.00
2875;BME280;1445;52.600;13.328;2023-04-20T05:27:03;101538.13;;;7.99;100.00
2875;BME280;1445;52.600;13.328;2023-04-20T05:29:29;101547.16;;;7.95;100.00
2875;BME280;1445;52.600;13.328;2023-04-20T05:31:54;101548.56;;;8.02;100.00
2875;BME280;1445;52.600;13.328;2023-04-20T05:34:20;101542.84;;;8.04;100.00
2875;BME280;1445;52.600;13.328;2023-04-20T05:36:45;101540.38;;;8.07;100.00
2875;BME280;1445;52.600;13.328;2023-04-20T05:39:11;101536.53;;;8.08;100.00
2875;BME280;1445;52.600;13.328;2023-04-20T05:41:37;101536.00;;;8.11;100.00
2875;BME280;1445;52.600;13.328;2023-04-20T05:44:02;101533.88;;;8.24;100.00
2875;BME280;1445;52.600;13.328;2023-04-20T05:46:28;101538.59;;;8.28;100.00
2875;BME280;1445;52.600;13.328;2023-04-20T05:48:53;101546.25;;;8.26;100.00
2875;BME280;1445;52.600;13.328;2023-04-20T05:51:19;101549.28;;;8.30;100.00
2875;BME280;1445;52.600;13.328;2023-04-20T05:53:46;101555.06;;;8.33;100.00
2875;BME280;1445;52.600;13.328;2023-04-20T05:56:11;101562.28;;;8.40;100.00
2875;BME280;1445;52.600;13.328;2023-04-20T05:58:37;101572.50;;;8.49;100.00
2875;BME280;1445;52.600;13.328;2023-04-20T06:01:03;101555.72;;;8.46;100.00
2875;BME280;1445;52.600;13.328;2023-04-20T06:03:29;101551.66;;;8.53;100.00
2875;BME280;1445;52.600;13.328;2023-04-20T06:05:55;101555.16;;;8.44;100.00
2875;BME280;1445;52.600;13.328;2023-04-20T06:08:20;101547.44;;;8.41;100.00
2875;BME280;1445;52.600;13.328;2023-04-20T06:10:46;101546.09;;;8.43;100.00
2875;BME280;1445;52.600;13.328;2023-04-20T06:13:11;101544.19;;;8.44;100.00
2875;BME280;1445;52.600;13.328;2023-04-20T06:15:36;101538.63;;;8.39;100.00
2875;BME280;1445;52.600;13.328;2023-04-20T06:18:02;101545.00;;;8.49;100.00
2875;BME280;1445;52.600;13.328;2023-04-20T06:20:27;101550.25;;;8.51;100.00
2875;BME280;1445;52.600;13.328;2023-04-20T06:22:53;101547.16;;;8.42;100.00
2875;BME280;1445;52.600;13.328;2023-04-20T06:25:19;101548.09;;;8.58;100.00
2875;BME280;1445;52.600;13.328;2023-04-20T06:27:44;101540.66;;;8.58;100.00
2875;BME280;1445;52.600;13.328;2023-04-20T06:30:11;101548.13;;;8.73;100.00
2875;BME280;1445;52.600;13.328;2023-04-20T06:32:37;101559.97;;;8.84;100.00
2875;BME280;1445;52.600;13.328;2023-04-20T06:35:02;101555.91;;;8.97;100.00
2875;BME280;1445;52.600;13.328;2023-04-20T06:37:28;101554.81;;;8.93;100.00
2875;BME280;1445;52.600;13.328;2023-04-20T06:39:54;101549.59;;;8.96;100.00
2875;BME280;1445;52.600;13.328;2023-04-20T06:42:20;101554.53;;;8.89;100.00
2875;BME280;1445;52.600;13.328;2023-04-20T06:44:45;101549.34;;;9.03;100.00
2875;BME280;1445;52.600;13.328;2023-04-20T06:47:11;101551.78;;;8.94;100.00
2875;BME280;1445;52.600;13.328;2023-04-20T06:49:36;101551.25;;;9.07;100.00
2875;BME280;1445;52.600;13.328;2023-04-20T06:52:06;101539.13;;;8.93;100.00
2875;BME280;1445;52.600;13.328;2023-04-20T06:54:31;101547.16;;;9.20;100.00
2875;BME280;1445;52.600;13.328;2023-04-20T06:56:57;101533.69;;;9.24;100.00
2875;BME280;1445;52.600;13.328;2023-04-20T06:59:22;101534.81;;;9.53;100.00
2875;BME280;1445;52.600;13.328;2023-04-20T07:01:48;101540.31;;;9.74;100.00
2875;BME280;1445;52.600;13.328;2023-04-20T07:04:13;101529.84;;;9.61;100.00
2875;BME280;1445;52.600;13.328;2023-04-20T07:06:38;101534.22;;;9.82;100.00
2875;BME280;1445;52.600;13.328;2023-04-20T07:09:04;101518.28;;;9.84;100.00
2875;BME280;1445;52.600;13.328;2023-04-20T07:11:30;101515.19;;;10.06;100.00
2875;BME280;1445;52.600;13.328;2023-04-20T07:13:55;101509.38;;;10.23;100.00
2875;BME280;1445;52.600;13.328;2023-04-20T07:16:21;101504.41;;;10.30;100.00
2875;BME280;1445;52.600;13.328;2023-04-20T07:18:46;101494.97;;;10.46;100.00
2875;BME280;1445;52.600;13.328;2023-04-20T07:21:12;101498.47;;;10.62;100.00
2875;BME280;1445;52.600;13.328;2023-04-20T07:23:39;101500.88;;;10.79;100.00
2875;BME280;1445;52.600;13.328;2023-04-20T07:26:04;101507.47;;;10.83;100.00
2875;BME280;1445;52.600;13.328;2023-04-20T07:28:30;101495.00;;;10.91;100.00
2875;BME280;1445;52.600;13.328;2023-04-20T07:30:55;101497.94;;;11.05;100.00
2875;BME280;1445;52.600;13.328;2023-04-20T07:33:21;101503.56;;;11.34;100.00
2875;BME280;1445;52.600;13.328;2023-04-20T07:35:48;101504.31;;;11.39;100.00
2875;BME280;1445;52.600;13.328;2023-04-20T07:38:14;101506.59;;;11.32;100.00
2875;BME280;1445;52.600;13.328;2023-04-20T07:40:39;101511.47;;;11.06;100.00
2875;BME280;1445;52.600;13.328;2023-04-20T07:43:05;101513.84;;;10.79;100.00
2875;BME280;1445;52.600;13.328;2023-04-20T07:45:30;101510.41;;;11.02;100.00
2875;BME280;1445;52.600;13.328;2023-04-20T07:47:55;101511.16;;;11.13;100.00
2875;BME280;1445;52.600;13.328;2023-04-20T07:50:21;101514.63;;;10.89;100.00
2875;BME280;1445;52.600;13.328;2023-04-20T07:52:46;101516.13;;;11.11;100.00
2875;BME280;1445;52.600;13.328;2023-04-20T07:55:12;101522.06;;;10.89;100.00
2875;BME280;1445;52.600;13.328;2023-04-20T07:57:38;101522.66;;;11.25;100.00
2875;BME280;1445;52.600;13.328;2023-04-20T08:00:05;101513.13;;;11.07;100.00
2875;BME280;1445;52.600;13.328;2023-04-20T08:02:34;101520.53;;;11.12;100.00
2875;BME280;1445;52.600;13.328;2023-04-20T08:05:03;101521.00;;;11.24;100.00
2875;BME280;1445;52.600;13.328;2023-04-20T08:07:29;101513.31;;;11.16;100.00
2875;BME280;1445;52.600;13.328;2023-04-20T08:09:54;101527.09;;;11.21;100.00
2875;BME280;1445;52.600;13.328;2023-04-20T08:12:21;101523.22;;;11.22;100.00
2875;BME280;1445;52.600;13.328;2023-04-20T08:14:46;101528.03;;;11.45;100.00
2875;BME280;1445;52.600;13.328;2023-04-20T08:17:11;101537.13;;;11.46;100.00
2875;BME280;1445;52.600;13.328;2023-04-20T08:19:37;101532.47;;;11.02;100.00
2875;BME280;1445;52.600;13.328;2023-04-20T08:22:04;101523.81;;;11.53;100.00
2875;BME280;1445;52.600;13.328;2023-04-20T08:24:29;101518.69;;;11.70;100.00
2875;BME280;1445;52.600;13.328;2023-04-20T08:26:55;101513.84;;;12.15;100.00
2875;BME280;1445;52.600;13.328;2023-04-20T08:29:20;101512.41;;;12.66;100.00
2875;BME280;1445;52.600;13.328;2023-04-20T08:31:46;101521.03;;;12.83;100.00
2875;BME280;1445;52.600;13.328;2023-04-20T08:34:12;101512.41;;;12.66;100.00
2875;BME280;1445;52.600;13.328;2023-04-20T08:36:37;101516.13;;;12.56;100.00
2875;BME280;1445;52.600;13.328;2023-04-20T08:39:08;101510.00;;;12.59;100.00
2875;BME280;1445;52.600;13.328;2023-04-20T08:41:35;101517.81;;;12.52;100.00
2875;BME280;1445;52.600;13.328;2023-04-20T08:44:01;101521.34;;;12.39;100.00
2875;BME280;1445;52.600;13.328;2023-04-20T08:46:27;101524.97;;;12.34;100.00
2875;BME280;1445;52.600;13.328;2023-04-20T08:48:53;101528.19;;;11.93;100.00
2875;BME280;1445;52.600;13.328;2023-04-20T08:51:22;101529.69;;;11.76;100.00
2875;BME280;1445;52.600;13.328;2023-04-20T08:53:48;101532.34;;;11.57;100.00
2875;BME280;1445;52.600;13.328;2023-04-20T08:56:13;101534.81;;;11.24;100.00
2875;BME280;1445;52.600;13.328;2023-04-20T08:58:39;101536.16;;;11.27;100.00
2875;BME280;1445;52.600;13.328;2023-04-20T09:01:10;101550.94;;;11.02;100.00
2875;BME280;1445;52.600;13.328;2023-04-20T09:03:36;101550.56;;;10.74;100.00
2875;BME280;1445;52.600;13.328;2023-04-20T09:06:12;101558.88;;;10.64;100.00
2875;BME280;1445;52.600;13.328;2023-04-20T09:08:39;101570.00;;;10.33;100.00
2875;BME280;1445;52.600;13.328;2023-04-20T09:11:05;101575.53;;;9.92;100.00
2875;BME280;1445;52.600;13.328;2023-04-20T09:13:31;101584.91;;;9.86;100.00
2875;BME280;1445;52.600;13.328;2023-04-20T09:15:57;101593.47;;;9.79;100.00
2875;BME280;1445;52.600;13.328;2023-04-20T09:18:22;101601.44;;;9.71;100.00
2875;BME280;1445;52.600;13.328;2023-04-20T09:20:49;101606.13;;;9.65;100.00
2875;BME280;1445;52.600;13.328;2023-04-20T09:23:17;101616.31;;;9.70;100.00
2875;BME280;1445;52.600;13.328;2023-04-20T09:25:43;101617.13;;;9.60;100.00
2875;BME280;1445;52.600;13.328;2023-04-20T09:28:11;101621.22;;;9.42;100.00
2875;BME280;1445;52.600;13.328;2023-04-20T09:33:06;101618.72;;;9.30;100.00
2875;BME280;1445;52.600;13.328;2023-04-20T09:35:33;101622.91;;;9.64;100.00
2875;BME280;1445;52.600;13.328;2023-04-20T09:37:59;101619.88;;;9.75;100.00
2875;BME280;1445;52.600;13.328;2023-04-20T09:40:24;101624.00;;;9.98;100.00
2875;BME280;1445;52.600;13.328;2023-04-20T09:42:52;101620.97;;;10.10;100.00
2875;BME280;1445;52.600;13.328;2023-04-20T09:45:19;101619.59;;;10.13;100.00
2875;BME280;1445;52.600;13.328;2023-04-20T09:47:46;101622.34;;;10.28;100.00
2875;BME280;1445;52.600;13.328;2023-04-20T09:50:13;101623.16;;;10.39;100.00
2875;BME280;1445;52.600;13.328;2023-04-20T09:52:41;101614.56;;;10.56;100.00
2875;BME280;1445;52.600;13.328;2023-04-20T09:55:09;101602.97;;;10.74;100.00
2875;BME280;1445;52.600;13.328;2023-04-20T09:57:34;101604.88;;;10.79;100.00
2875;BME280;1445;52.600;13.328;2023-04-20T10:00:01;101585.66;;;11.13;100.00
2875;BME280;1445;52.600;13.328;2023-04-20T10:02:26;101573.50;;;11.14;100.00
2875;BME280;1445;52.600;13.328;2023-04-20T10:04:58;101555.47;;;11.66;100.00
2875;BME280;1445;52.600;13.328;2023-04-20T10:07:25;101548.72;;;12.11;100.00
2875;BME280;1445;52.600;13.328;2023-04-20T10:12:52;101527.91;;;12.43;100.00
2875;BME280;1445;52.600;13.328;2023-04-20T10:15:19;101518.63;;;13.14;100.00
2875;BME280;1445;52.600;13.328;2023-04-20T10:17:46;101518.91;;;13.51;100.00
2875;BME280;1445;52.600;13.328;2023-04-20T10:20:27;101508.81;;;13.60;100.00
2875;BME280;1445;52.600;13.328;2023-04-20T10:23:04;101507.66;;;13.61;100.00
2875;BME280;1445;52.600;13.328;2023-04-20T10:25:30;101506.34;;;14.19;100.00
2875;BME280;1445;52.600;13.328;2023-04-20T10:27:58;101494.59;;;14.77;100.00
2875;BME280;1445;52.600;13.328;2023-04-20T10:30:28;101480.03;;;15.30;100.00
2875;BME280;1445;52.600;13.328;2023-04-20T10:33:10;101478.25;;;15.79;100.00
2875;BME280;1445;52.600;13.328;2023-04-20T10:35:52;101468.19;;;15.92;100.00
2875;BME280;1445;52.600;13.328;2023-04-20T10:38:34;101466.56;;;15.68;100.00
2875;BME280;1445;52.600;13.328;2023-04-20T10:41:10;101452.91;;;15.58;100.00
2875;BME280;1445;52.600;13.328;2023-04-20T10:43:35;101454.44;;;15.95;100.00
2875;BME280;1445;52.600;13.328;2023-04-20T10:46:32;101449.91;;;16.57;100.00
2875;BME280;1445;52.600;13.328;2023-04-20T10:48:59;101443.72;;;16.94;100.00
2875;BME280;1445;52.600;13.328;2023-04-20T10:51:28;101453.50;;;17.44;100.00
2875;BME280;1445;52.600;13.328;2023-04-20T10:54:11;101456.31;;;17.27;100.00
2875;BME280;1445;52.600;13.328;2023-04-20T10:56:41;101450.88;;;16.69;100.00
2875;BME280;1445;52.600;13.328;2023-04-20T10:59:09;101450.09;;;16.86;100.00
2875;BME280;1445;52.600;13.328;2023-04-20T11:01:38;101444.06;;;17.10;100.00
2875;BME280;1445;52.600;13.328;2023-04-20T11:04:04;101442.72;;;17.98;100.00
2875;BME280;1445;52.600;13.328;2023-04-20T11:06:30;101442.09;;;18.52;100.00
2875;BME280;1445;52.600;13.328;2023-04-20T11:08:56;101434.44;;;18.91;100.00
2875;BME280;1445;52.600;13.328;2023-04-20T11:11:26;101432.59;;;18.95;100.00
2875;BME280;1445;52.600;13.328;2023-04-20T11:14:13;101430.13;;;19.14;100.00
2875;BME280;1445;52.600;13.328;2023-04-20T11:16:38;101435.06;;;18.96;100.00
2875;BME280;1445;52.600;13.328;2023-04-20T11:19:04;101429.91;;;18.98;100.00
2875;BME280;1445;52.600;13.328;2023-04-20T11:21:39;101439.16;;;18.48;100.00
2875;BME280;1445;52.600;13.328;2023-04-20T11:24:17;101426.00;;;18.78;100.00
2875;BME280;1445;52.600;13.328;2023-04-20T11:26:44;101427.13;;;18.27;100.00
2875;BME280;1445;52.600;13.328;2023-04-20T11:29:09;101418.84;;;18.60;100.00
2875;BME280;1445;52.600;13.328;2023-04-20T11:31:35;101419.78;;;19.60;100.00
2875;BME280;1445;52.600;13.328;2023-04-20T11:34:01;101425.03;;;19.28;100.00
2875;BME280;1445;52.600;13.328;2023-04-20T11:36:28;101408.25;;;20.72;100.00
2875;BME280;1445;52.600;13.328;2023-04-20T11:38:54;101418.91;;;20.30;100.00
2875;BME280;1445;52.600;13.328;2023-04-20T11:41:20;101414.13;;;20.06;100.00
2875;BME280;1445;52.600;13.328;2023-04-20T11:43:46;101414.22;;;19.27;100.00
2875;BME280;1445;52.600;13.328;2023-04-20T11:46:18;101421.34;;;19.03;100.00
2875;BME280;1445;52.600;13.328;2023-04-20T11:48:45;101418.22;;;19.38;100.00
2875;BME280;1445;52.600;13.328;2023-04-20T11:51:11;101424.41;;;18.90;100.00
2875;BME280;1445;52.600;13.328;2023-04-20T11:53:37;101420.91;;;18.51;100.00
2875;BME280;1445;52.600;13.328;2023-04-20T11:56:03;101418.75;;;18.27;100.00
2875;BME280;1445;52.600;13.328;2023-04-20T11:58:29;101420.41;;;17.98;100.00
2875;BME280;1445;52.600;13.328;2023-04-20T12:00:54;101416.69;;;18.66;100.00
2875;BME280;1445;52.600;13.328;2023-04-20T12:03:19;101410.72;;;19.30;100.00
2875;BME280;1445;52.600;13.328;2023-04-20T12:05:45;101404.56;;;20.07;100.00
2875;BME280;1445;52.600;13.328;2023-04-20T12:08:10;101401.75;;;19.70;100.00
2875;BME280;1445;52.600;13.328;2023-04-20T12:10:36;101401.06;;;20.10;100.00
2875;BME280;1445;52.600;13.328;2023-04-20T12:13:01;101398.16;;;19.94;100.00
2875;BME280;1445;52.600;13.328;2023-04-20T12:15:27;101393.63;;;19.44;100.00
2875;BME280;1445;52.600;13.328;2023-04-20T12:17:52;101404.03;;;18.47;100.00
2875;BME280;1445;52.600;13.328;2023-04-20T12:20:18;101402.31;;;19.30;100.00
2875;BME280;1445;52.600;13.328;2023-04-20T12:22:44;101388.69;;;19.86;100.00
2875;BME280;1445;52.600;13.328;2023-04-20T12:25:10;101389.50;;;19.74;100.00
2875;BME280;1445;52.600;13.328;2023-04-20T12:27:35;101389.56;;;18.66;100.00
2875;BME280;1445;52.600;13.328;2023-04-20T12:30:01;101389.44;;;18.42;100.00
2875;BME280;1445;52.600;13.328;2023-04-20T12:32:26;101393.50;;;18.23;100.00
2875;BME280;1445;52.600;13.328;2023-04-20T12:34:52;101397.44;;;17.93;100.00
2875;BME280;1445;52.600;13.328;2023-04-20T12:37:17;101383.31;;;18.90;100.00
2875;BME280;1445;52.600;13.328;2023-04-20T12:39:44;101378.31;;;19.17;100.00
2875;BME280;1445;52.600;13.328;2023-04-20T12:42:09;101372.00;;;20.26;100.00
2875;BME280;1445;52.600;13.328;2023-04-20T12:44:35;101370.47;;;21.38;100.00
2875;BME280;1445;52.600;13.328;2023-04-20T12:47:00;101367.16;;;22.85;100.00
2875;BME280;1445;52.600;13.328;2023-04-20T12:49:26;101365.56;;;23.27;100.00
2875;BME280;1445;52.600;13.328;2023-04-20T12:51:51;101361.63;;;22.34;100.00
2875;BME280;1445;52.600;13.328;2023-04-20T12:54:16;101354.25;;;21.31;100.00
2875;BME280;1445;52.600;13.328;2023-04-20T12:56:42;101356.38;;;21.34;100.00